Time;durP1;ratioP1;P1;durP2;ratioP2;P2;SDS_P1;SDS_P2;PMS_P1;PMS_P2;Temp;Humidity;BMP_temperature;BMP_pressure;BME280_temperature;BME280_humidity;BME280_pressure;Samples;Min_cycle;Max_cycle;Signal;HPM_P1;HPM_P2
2021/08/11 00:02:06;;;;;;;12.25;3.50;;;;;;;15.43;75.15;100363.39;125726;1096;22867;-79
2021/08/11 00:04:37;;;;;;;11.00;3.00;;;;;;;15.43;75.18;100372.61;125813;1096;22928;-78
2021/08/11 00:07:08;;;;;;;12.55;3.05;;;;;;;15.43;75.33;100378.23;125852;1096;22877;-78
2021/08/11 00:09:39;;;;;;;13.30;3.03;;;;;;;15.44;75.43;100378.98;125819;1096;27684;-78
2021/08/11 00:12:12;;;;;;;18.65;4.05;;;;;;;15.46;75.61;100382.83;125810;1096;22813;-80
2021/08/11 00:14:44;;;;;;;9.55;2.95;;;;;;;15.43;75.88;100377.46;125771;1094;22826;-78
2021/08/11 00:17:15;;;;;;;10.27;2.23;;;;;;;15.40;75.74;100390.46;126013;1095;22973;-80
2021/08/11 00:19:46;;;;;;;8.03;1.97;;;;;;;15.35;76.33;100394.05;125667;1096;25992;-78
2021/08/11 00:22:20;;;;;;;9.30;2.05;;;;;;;15.33;76.55;100405.79;125691;1096;22874;-78
2021/08/11 00:24:51;;;;;;;7.30;2.10;;;;;;;15.34;76.79;100407.34;125804;1095;24471;-78
2021/08/11 00:27:23;;;;;;;10.55;2.50;;;;;;;15.38;77.10;100416.30;125730;1096;25999;-77
2021/08/11 00:29:54;;;;;;;11.30;2.80;;;;;;;15.43;77.28;100414.03;125837;1096;22852;-78
2021/08/11 00:32:25;;;;;;;9.35;2.50;;;;;;;15.46;77.44;100413.78;125789;1096;23206;-78
2021/08/11 00:34:56;;;;;;;10.90;2.90;;;;;;;15.49;77.49;100424.03;125680;1096;22852;-78
2021/08/11 00:37:28;;;;;;;12.70;3.20;;;;;;;15.54;77.52;100430.95;125765;1096;26340;-80
2021/08/11 00:39:59;;;;;;;11.70;3.30;;;;;;;15.58;77.84;100432.21;125735;1096;22924;-80
2021/08/11 00:42:40;;;;;;;10.88;2.68;;;;;;;15.61;77.67;100428.39;125748;1096;22799;-79
2021/08/11 00:45:14;;;;;;;9.70;2.70;;;;;;;15.66;78.41;100435.31;125886;1096;22790;-78
2021/08/11 00:47:47;;;;;;;8.05;2.15;;;;;;;15.71;78.90;100421.23;125808;1095;22764;-78
2021/08/11 00:50:18;;;;;;;13.50;2.75;;;;;;;15.78;78.87;100417.93;125856;1096;27325;-79
2021/08/11 00:52:50;;;;;;;13.00;2.85;;;;;;;15.85;78.99;100419.47;125614;1096;23641;-78
2021/08/11 00:55:25;;;;;;;11.00;2.30;;;;;;;15.91;78.67;100403.34;125768;1096;22821;-78
2021/08/11 00:57:58;;;;;;;10.80;2.45;;;;;;;15.97;78.72;100395.66;125629;1097;22841;-78
2021/08/11 01:00:32;;;;;;;13.15;2.35;;;;;;;16.05;78.83;100391.05;125723;1096;22855;-78
2021/08/11 01:03:04;;;;;;;8.87;2.20;;;;;;;16.08;79.11;100401.27;125821;1096;22807;-78
2021/08/11 01:05:35;;;;;;;13.15;2.50;;;;;;;16.11;78.51;100386.95;125697;1096;22865;-80
2021/08/11 01:08:08;;;;;;;9.05;3.15;;;;;;;16.15;78.77;100387.45;125788;1096;22981;-79
2021/08/11 01:10:40;;;;;;;9.30;2.30;;;;;;;16.19;78.94;100384.38;125805;1096;22806;-78
2021/08/11 01:13:14;;;;;;;12.10;2.95;;;;;;;16.23;78.46;100384.88;125844;1095;22977;-79
2021/08/11 01:15:46;;;;;;;7.93;2.20;;;;;;;16.25;78.96;100387.17;125776;1096;27703;-79
2021/08/11 01:18:20;;;;;;;9.37;2.80;;;;;;;16.27;79.00;100393.83;125862;1096;22810;-78
2021/08/11 01:21:01;;;;;;;9.67;2.30;;;;;;;16.29;78.68;100377.18;125952;1095;22903;-78
2021/08/11 01:23:42;;;;;;;11.35;3.10;;;;;;;16.31;79.00;100394.33;125917;1096;22791;-78
2021/08/11 01:26:17;;;;;;;;;;;;;;;16.31;79.01;100391.52;125873;1096;23543;-80
2021/08/11 01:29:00;;;;;;;8.15;1.95;;;;;;;16.30;78.53;100389.22;125818;1096;23283;-78
2021/08/11 01:31:42;;;;;;;9.55;2.40;;;;;;;16.30;78.33;100380.77;125754;1096;23641;-79
2021/08/11 01:34:17;;;;;;;6.67;1.83;;;;;;;16.31;78.54;100377.43;125754;1096;22886;-78
2021/08/11 01:36:54;;;;;;;9.65;1.85;;;;;;;16.32;78.54;100381.02;125849;1095;22931;-80
2021/08/11 01:39:37;;;;;;;9.60;2.20;;;;;;;16.30;78.57;100384.36;125876;1095;25995;-79
2021/08/11 01:42:12;;;;;;;10.15;2.00;;;;;;;16.30;78.98;100387.17;125801;1096;25976;-79
2021/08/11 01:44:49;;;;;;;7.30;2.25;;;;;;;16.28;78.91;100388.97;125703;1096;22828;-79
2021/08/11 01:47:26;;;;;;;9.27;1.93;;;;;;;16.25;78.43;100398.44;125762;1095;24193;-78
2021/08/11 01:49:59;;;;;;;10.10;2.20;;;;;;;16.22;78.37;100388.98;125776;1096;23232;-79
2021/08/11 01:52:40;;;;;;;9.43;2.60;;;;;;;16.23;78.23;100384.09;125942;1096;25887;-78
2021/08/11 01:55:14;;;;;;;6.97;2.13;;;;;;;16.20;78.16;100380.28;125744;1096;22847;-79
2021/08/11 01:57:49;;;;;;;11.30;2.07;;;;;;;16.16;78.18;100380.52;125802;1096;24368;-78
2021/08/11 02:00:22;;;;;;;9.60;1.80;;;;;;;16.14;78.17;100385.13;125804;1096;23626;-78
2021/08/11 02:02:55;;;;;;;11.65;2.20;;;;;;;16.11;78.26;100381.32;125823;1096;22825;-78
2021/08/11 02:05:30;;;;;;;7.25;2.00;;;;;;;16.07;78.32;100377.22;125886;1096;23367;-79
2021/08/11 02:08:09;;;;;;;9.95;2.10;;;;;;;16.02;77.89;100381.58;125902;1095;22936;-78
2021/08/11 02:10:43;;;;;;;9.53;2.20;;;;;;;15.98;77.76;100394.37;125726;1096;22808;-78
2021/08/11 02:13:17;;;;;;;6.30;1.85;;;;;;;15.97;78.31;100390.03;125880;1096;24792;-79
2021/08/11 02:15:51;;;;;;;7.05;1.95;;;;;;;15.94;78.18;100386.19;125753;1096;27325;-78
2021/08/11 02:18:23;;;;;;;14.45;2.65;;;;;;;15.92;78.01;100383.12;125877;1096;22792;-79
2021/08/11 02:20:55;;;;;;;10.65;2.40;;;;;;;15.91;78.43;100387.20;125699;1096;24611;-79
2021/08/11 02:23:27;;;;;;;9.55;2.50;;;;;;;15.88;78.07;100388.24;125851;1096;22816;-78
2021/08/11 02:26:05;;;;;;;8.40;2.00;;;;;;;15.87;77.96;100385.95;125877;1096;22863;-78
2021/08/11 02:28:47;;;;;;;9.75;2.50;;;;;;;15.84;77.94;100392.59;125915;1095;26079;-79
2021/08/11 02:31:27;;;;;;;10.85;2.40;;;;;;;15.80;77.96;100392.84;125752;1096;25862;-78
2021/08/11 02:34:05;;;;;;;9.35;1.90;;;;;;;15.76;78.04;100389.52;125720;1096;22791;-78
2021/08/11 02:36:45;;;;;;;11.07;2.40;;;;;;;15.72;77.81;100382.61;125719;1096;22797;-78
2021/08/11 02:39:25;;;;;;;10.75;2.35;;;;;;;15.69;77.97;100392.06;125765;1096;24483;-78
2021/08/11 02:42:03;;;;;;;14.18;2.98;;;;;;;15.67;77.93;100400.25;125702;1095;24506;-79
2021/08/11 02:44:42;;;;;;;10.03;2.53;;;;;;;15.64;78.02;100404.09;125835;1096;27213;-79
2021/08/11 02:47:16;;;;;;;9.85;2.20;;;;;;;15.59;77.90;100399.99;125755;1096;22777;-80
2021/08/11 02:49:48;;;;;;;11.40;2.30;;;;;;;15.55;78.08;100396.66;125747;1096;22802;-79
2021/08/11 02:52:21;;;;;;;9.20;2.53;;;;;;;15.54;78.46;100394.37;125891;1096;22954;-78
2021/08/11 02:54:56;;;;;;;9.87;2.70;;;;;;;15.50;77.86;100391.04;125820;1096;24522;-78
2021/08/11 02:57:28;;;;;;;8.60;2.33;;;;;;;15.47;77.81;100387.19;125661;1097;26310;-79
2021/08/11 03:00:00;;;;;;;8.70;2.50;;;;;;;15.45;77.94;100394.59;125694;1096;23367;-78
2021/08/11 03:02:31;;;;;;;9.75;2.55;;;;;;;15.41;78.23;100395.58;125722;1096;26357;-79
2021/08/11 03:05:04;;;;;;;8.35;2.30;;;;;;;15.39;77.95;100397.38;125691;1096;22786;-78
2021/08/11 03:07:36;;;;;;;14.40;2.95;;;;;;;15.36;78.25;100399.16;125741;1096;22971;-78
2021/08/11 03:10:13;;;;;;;12.65;3.00;;;;;;;15.32;78.46;100401.45;125704;1096;22877;-80
2021/08/11 03:12:48;;;;;;;10.05;2.60;;;;;;;15.28;78.22;100397.34;125712;1096;22828;-79
2021/08/11 03:15:20;;;;;;;9.40;2.50;;;;;;;15.25;78.24;100404.75;125728;1096;22803;-78
2021/08/11 03:17:52;;;;;;;13.40;2.00;;;;;;;15.22;77.57;100413.44;125805;1096;22831;-78
2021/08/11 03:20:24;;;;;;;8.30;2.40;;;;;;;15.20;78.12;100413.95;125782;1095;24070;-78
2021/08/11 03:22:56;;;;;;;11.17;2.77;;;;;;;15.18;78.05;100415.73;125666;1096;22820;-79
2021/08/11 03:25:28;;;;;;;11.00;2.77;;;;;;;15.16;78.03;100410.63;125757;1096;27661;-78
2021/08/11 03:27:59;;;;;;;10.85;2.50;;;;;;;15.15;78.14;100405.48;125904;1095;22866;-78
2021/08/11 03:30:30;;;;;;;10.33;2.53;;;;;;;15.10;78.20;100411.88;125777;1096;22811;-80
2021/08/11 03:33:01;;;;;;;12.35;2.70;;;;;;;15.06;78.27;100417.72;125744;1096;22811;-79
2021/08/11 03:35:33;;;;;;;10.35;2.85;;;;;;;15.03;78.11;100415.94;125752;1096;22873;-78
2021/08/11 03:38:04;;;;;;;8.90;2.75;;;;;;;15.00;78.11;100419.75;125698;1096;23533;-78
2021/08/11 03:40:36;;;;;;;8.70;2.73;;;;;;;14.96;77.94;100410.04;125713;1096;22907;-78
2021/08/11 03:43:09;;;;;;;7.35;2.40;;;;;;;14.92;78.41;100412.33;125702;1096;22806;-78
2021/08/11 03:45:42;;;;;;;9.75;2.65;;;;;;;14.91;78.48;100410.77;125688;1096;22813;-79
2021/08/11 03:48:17;;;;;;;10.63;2.67;;;;;;;14.89;78.23;100411.28;125816;1096;26704;-79
2021/08/11 03:50:48;;;;;;;13.13;2.97;;;;;;;14.90;79.04;100412.81;125844;1096;27253;-78
2021/08/11 03:53:19;;;;;;;12.85;3.95;;;;;;;14.88;78.89;100411.77;125737;1096;22813;-78
2021/08/11 03:55:50;;;;;;;13.30;3.05;;;;;;;14.87;79.06;100419.45;125694;1095;27335;-78
2021/08/11 03:58:22;;;;;;;11.65;3.10;;;;;;;14.86;79.18;100417.91;125713;1096;22785;-79
2021/08/11 04:00:53;;;;;;;8.07;2.27;;;;;;;14.84;79.26;100417.64;125754;1096;22788;-80
2021/08/11 04:03:25;;;;;;;10.55;3.40;;;;;;;14.81;79.11;100421.47;125744;1096;22870;-79
2021/08/11 04:06:00;;;;;;;9.90;2.40;;;;;;;14.79;78.85;100418.41;125764;1096;22947;-78
2021/08/11 04:08:31;;;;;;;8.93;2.50;;;;;;;14.78;79.07;100418.88;125862;1096;22810;-78
2021/08/11 04:11:04;;;;;;;7.80;2.00;;;;;;;14.76;78.86;100415.81;125744;1096;24590;-78
2021/08/11 04:13:36;;;;;;;9.65;2.45;;;;;;;14.74;79.25;100423.97;125983;1095;26585;-79
2021/08/11 04:16:08;;;;;;;8.30;2.43;;;;;;;14.73;79.11;100431.66;125739;1096;26305;-78
2021/08/11 04:18:40;;;;;;;8.97;2.63;;;;;;;14.73;79.33;100428.84;125941;1096;28709;-79
2021/08/11 04:21:11;;;;;;;9.60;2.50;;;;;;;14.76;79.21;100439.06;125783;1096;22871;-78
2021/08/11 04:23:42;;;;;;;9.80;2.70;;;;;;;14.79;79.57;100440.11;125799;1096;22842;-79
2021/08/11 04:26:14;;;;;;;13.73;2.60;;;;;;;14.83;79.92;100440.64;125690;1096;26597;-78
2021/08/11 04:28:45;;;;;;;10.50;2.90;;;;;;;14.88;80.28;100448.31;125706;1096;22907;-79
2021/08/11 04:31:17;;;;;;;13.20;2.95;;;;;;;14.91;80.10;100445.28;125827;1096;22868;-78
2021/08/11 04:33:48;;;;;;;11.47;3.00;;;;;;;14.99;80.18;100451.19;125734;1096;23326;-77
2021/08/11 04:36:20;;;;;;;12.05;2.50;;;;;;;15.05;80.63;100449.94;125862;1096;22838;-78
2021/08/11 04:38:51;;;;;;;10.95;2.90;;;;;;;15.11;80.91;100450.73;125886;1096;22802;-79
2021/08/11 04:41:23;;;;;;;12.77;3.07;;;;;;;15.20;81.38;100446.93;125942;1095;22951;-80
2021/08/11 04:43:54;;;;;;;11.90;3.25;;;;;;;15.28;81.75;100445.94;125706;1096;27192;-78
2021/08/11 04:46:26;;;;;;;10.70;2.50;;;;;;;15.38;81.51;100452.09;125836;1096;25887;-79
2021/08/11 04:48:58;;;;;;;20.00;5.50;;;;;;;15.46;81.69;100455.23;125911;1096;22976;-78
2021/08/11 04:51:29;;;;;;;12.00;3.05;;;;;;;15.54;82.07;100450.64;125758;1096;25852;-78
2021/08/11 04:54:00;;;;;;;10.50;2.70;;;;;;;15.58;81.38;100453.98;125872;1096;22816;-78
2021/08/11 04:56:33;;;;;;;10.65;3.00;;;;;;;15.64;81.24;100454.75;125971;1096;22857;-79
2021/08/11 04:59:04;;;;;;;12.15;3.10;;;;;;;15.68;81.44;100463.72;125754;1096;27245;-78
2021/08/11 05:01:36;;;;;;;10.70;2.55;;;;;;;15.73;81.37;100466.53;125642;1096;22772;-78
2021/08/11 05:04:08;;;;;;;8.80;2.20;;;;;;;15.80;81.39;100462.45;125848;1096;22810;-78
2021/08/11 05:06:39;;;;;;;9.95;2.60;;;;;;;15.88;81.91;100460.66;125728;1095;22847;-78
2021/08/11 05:09:11;;;;;;;8.10;1.90;;;;;;;15.98;81.83;100468.36;125798;1096;22810;-79
2021/08/11 05:11:42;;;;;;;15.37;3.07;;;;;;;16.09;82.21;100464.78;125794;1095;25893;-79
2021/08/11 05:14:13;;;;;;;9.20;1.77;;;;;;;16.20;81.67;100471.17;125756;1096;27460;-79
2021/08/11 05:16:44;;;;;;;7.17;1.70;;;;;;;16.31;81.94;100476.03;125693;1095;22827;-80
2021/08/11 05:19:16;;;;;;;7.95;1.70;;;;;;;16.42;81.72;100478.08;125867;1096;22810;-80
2021/08/11 05:21:47;;;;;;;9.05;1.90;;;;;;;16.51;80.76;100478.59;125688;1096;22804;-79
2021/08/11 05:24:19;;;;;;;9.80;1.90;;;;;;;16.61;80.69;100482.70;125688;1095;27239;-78
2021/08/11 05:26:50;;;;;;;15.50;2.10;;;;;;;16.69;80.60;100480.90;125776;1096;22783;-80
2021/08/11 05:29:22;;;;;;;11.20;2.05;;;;;;;16.78;80.50;100486.23;125721;1095;27679;-78
2021/08/11 05:31:55;;;;;;;19.80;2.30;;;;;;;16.92;80.38;100490.06;125830;1095;22804;-79
2021/08/11 05:34:26;;;;;;;8.65;1.65;;;;;;;17.03;79.74;100486.45;125767;1095;22806;-79
2021/08/11 05:36:58;;;;;;;8.45;1.80;;;;;;;17.11;79.72;100487.45;125804;1096;22810;-78
2021/08/11 05:39:30;;;;;;;9.97;1.77;;;;;;;17.16;79.50;100489.46;125691;1096;25939;-78
2021/08/11 05:42:01;;;;;;;11.90;2.10;;;;;;;17.21;79.48;100499.97;125706;1096;22828;-78
2021/08/11 05:44:32;;;;;;;9.43;2.27;;;;;;;17.25;79.38;100500.47;125749;1096;22875;-78
2021/08/11 05:47:05;;;;;;;9.65;2.20;;;;;;;17.26;78.82;100511.22;125754;1096;22785;-79
2021/08/11 05:49:39;;;;;;;8.80;2.25;;;;;;;17.28;78.61;100502.23;125749;1096;26950;-78
2021/08/11 05:52:13;;;;;;;12.50;2.70;;;;;;;17.31;78.52;100504.03;125872;1096;27894;-78
2021/08/11 05:54:46;;;;;;;12.10;2.30;;;;;;;17.31;78.58;100501.98;125932;1096;23021;-78
2021/08/11 05:57:17;;;;;;;14.80;2.20;;;;;;;17.31;78.60;100499.16;125744;1096;22751;-80
2021/08/11 05:59:51;;;;;;;12.25;2.75;;;;;;;17.32;78.13;100511.22;125776;1096;22886;-79
2021/08/11 06:02:23;;;;;;;12.90;2.30;;;;;;;17.32;78.17;100508.41;125836;1096;27722;-78
2021/08/11 06:04:54;;;;;;;12.60;3.80;;;;;;;17.31;78.09;100504.80;125683;1095;22850;-79
2021/08/11 06:07:25;;;;;;;14.75;2.95;;;;;;;17.29;77.82;100503.78;125713;1096;22858;-80
2021/08/11 06:09:57;;;;;;;14.80;3.00;;;;;;;17.26;77.98;100504.80;125631;1096;22860;-80
2021/08/11 06:12:28;;;;;;;11.50;2.55;;;;;;;17.22;77.79;100509.95;125614;1096;22810;-79
2021/08/11 06:15:00;;;;;;;13.50;2.80;;;;;;;17.22;78.21;100507.13;125674;1097;22889;-80
2021/08/11 06:17:31;;;;;;;19.15;3.05;;;;;;;17.23;78.01;100503.81;125731;1096;22931;-79
2021/08/11 06:20:03;;;;;;;10.60;2.60;;;;;;;17.25;77.75;100508.93;125627;1096;26962;-79
2021/08/11 06:22:36;;;;;;;12.30;2.40;;;;;;;17.28;77.88;100511.47;125694;1095;22884;-79
2021/08/11 06:25:12;;;;;;;11.95;2.20;;;;;;;17.35;77.99;100513.77;125801;1096;25886;-78
2021/08/11 06:27:45;;;;;;;9.10;2.40;;;;;;;17.43;78.00;100511.93;125800;1096;22774;-78
2021/08/11 06:30:18;;;;;;;11.00;2.37;;;;;;;17.50;77.85;100507.83;125776;1095;27249;-80
2021/08/11 06:32:49;;;;;;;8.15;2.00;;;;;;;17.55;77.52;100504.97;125806;1095;22786;-78
2021/08/11 06:35:21;;;;;;;10.50;2.00;;;;;;;17.62;77.47;100520.59;125747;1096;22940;-79
2021/08/11 06:37:55;;;;;;;9.65;2.30;;;;;;;17.69;77.47;100512.33;125730;1096;22803;-78
2021/08/11 06:40:27;;;;;;;9.10;2.10;;;;;;;17.78;77.08;100531.02;125769;1095;22783;-78
2021/08/11 06:43:07;;;;;;;7.55;1.80;;;;;;;17.83;77.02;100526.64;125778;1095;22779;-80
2021/08/11 06:45:39;;;;;;;9.23;2.00;;;;;;;17.86;76.07;100520.70;125748;1096;22800;-79
2021/08/11 06:48:12;;;;;;;11.55;2.70;;;;;;;17.94;76.74;100527.33;125710;1096;22838;-79
2021/08/11 06:50:45;;;;;;;9.80;2.43;;;;;;;18.03;76.75;100527.02;125719;1095;22809;-78
2021/08/11 06:53:16;;;;;;;10.90;2.45;;;;;;;18.11;76.37;100525.16;125779;1096;24537;-78
2021/08/11 06:55:47;;;;;;;9.60;2.50;;;;;;;18.18;75.97;100535.91;125772;1096;22866;-79
2021/08/11 06:58:20;;;;;;;7.93;2.37;;;;;;;18.21;75.83;100534.84;125817;1096;26111;-79
2021/08/11 07:00:53;;;;;;;8.87;2.40;;;;;;;18.24;75.64;100538.69;125681;1096;24309;-78
2021/08/11 07:03:29;;;;;;;6.55;1.65;;;;;;;18.25;75.16;100529.67;125816;1096;28497;-78
2021/08/11 07:06:01;;;;;;;7.25;1.80;;;;;;;18.29;75.79;100529.41;125832;1095;22782;-78
2021/08/11 07:08:32;;;;;;;10.70;2.20;;;;;;;18.33;75.32;100539.12;125789;1096;22897;-79
2021/08/11 07:11:03;;;;;;;13.20;2.57;;;;;;;18.32;75.16;100536.83;125770;1096;22860;-79
2021/08/11 07:13:35;;;;;;;8.93;1.98;;;;;;;18.36;74.99;100532.42;125727;1095;25886;-78
2021/08/11 07:16:07;;;;;;;12.07;2.10;;;;;;;18.40;74.74;100544.22;125777;1096;26340;-78
2021/08/11 07:18:39;;;;;;;7.57;1.90;;;;;;;18.43;74.72;100542.40;125781;1096;22797;-78
2021/08/11 07:21:10;;;;;;;7.27;1.53;;;;;;;18.51;74.92;100541.34;125747;1096;22854;-79
2021/08/11 07:23:41;;;;;;;7.10;1.73;;;;;;;18.60;74.64;100528.16;125752;1096;23415;-81
2021/08/11 07:26:12;;;;;;;7.17;1.77;;;;;;;18.67;74.83;100541.70;125723;1096;22886;-78
2021/08/11 07:28:44;;;;;;;7.30;1.60;;;;;;;18.74;74.14;100539.07;125719;1096;22887;-81
2021/08/11 07:31:19;;;;;;;9.80;1.70;;;;;;;18.80;73.87;100541.84;125751;1096;22995;-79
2021/08/11 07:33:50;;;;;;;9.50;1.90;;;;;;;18.86;72.92;100551.03;125644;1096;22857;-79
2021/08/11 07:36:22;;;;;;;6.70;1.73;;;;;;;18.88;73.17;100546.39;125668;1096;22810;-79
2021/08/11 07:38:53;;;;;;;9.15;2.05;;;;;;;18.90;72.67;100549.45;125725;1096;24377;-79
2021/08/11 07:41:25;;;;;;;8.00;1.80;;;;;;;18.95;72.51;100559.95;125683;1095;22915;-79
2021/08/11 07:43:57;;;;;;;10.33;2.40;;;;;;;18.96;72.88;100546.55;125656;1096;22841;-79
2021/08/11 07:46:30;;;;;;;7.40;1.87;;;;;;;19.00;72.55;100555.52;125916;1097;22808;-79
2021/08/11 07:49:01;;;;;;;6.45;1.83;;;;;;;19.03;72.88;100558.07;125660;1095;22868;-79
2021/08/11 07:51:33;;;;;;;9.70;2.18;;;;;;;19.10;72.34;100553.86;125725;1096;22874;-79
2021/08/11 07:54:04;;;;;;;8.13;1.83;;;;;;;19.17;72.15;100551.22;125699;1096;26375;-79
2021/08/11 07:56:37;;;;;;;9.60;1.85;;;;;;;19.26;71.71;100555.77;125718;1096;25973;-78
2021/08/11 07:59:11;;;;;;;7.00;1.77;;;;;;;19.33;71.71;100563.64;125789;1096;25462;-79
2021/08/11 08:01:42;;;;;;;6.43;1.87;;;;;;;19.37;71.25;100564.14;125691;1096;22798;-79
2021/08/11 08:04:14;;;;;;;6.83;1.88;;;;;;;19.43;69.67;100559.17;125776;1096;22784;-79
2021/08/11 08:06:45;;;;;;;6.60;1.50;;;;;;;19.49;70.16;100565.53;125716;1096;22861;-79
2021/08/11 08:09:16;;;;;;;8.35;1.63;;;;;;;19.52;69.90;100546.72;125662;1096;22820;-79
2021/08/11 08:11:48;;;;;;;6.78;1.50;;;;;;;19.60;69.51;100567.47;125718;1095;26397;-79
2021/08/11 08:14:22;;;;;;;6.33;1.57;;;;;;;19.67;69.55;100559.15;125865;1096;22807;-79
2021/08/11 08:16:53;;;;;;;7.38;1.68;;;;;;;19.74;69.00;100560.61;125813;1096;22871;-79
2021/08/11 08:19:25;;;;;;;7.57;1.80;;;;;;;19.80;68.66;100561.30;125731;1096;23216;-78
2021/08/11 08:21:57;;;;;;;5.30;1.30;;;;;;;19.81;67.85;100557.16;125729;1097;24614;-78
2021/08/11 08:24:31;;;;;;;7.45;1.43;;;;;;;19.80;68.35;100564.13;125701;1096;24515;-79
2021/08/11 08:27:03;;;;;;;7.18;1.60;;;;;;;19.83;68.13;100560.22;125764;1096;24172;-77
2021/08/11 08:29:35;;;;;;;6.40;1.43;;;;;;;19.96;67.23;100578.08;125865;1096;24646;-78
2021/08/11 08:32:07;;;;;;;7.13;1.30;;;;;;;20.00;65.91;100567.20;125885;1096;22804;-78
2021/08/11 08:34:38;;;;;;;6.03;1.33;;;;;;;20.01;66.60;100563.05;125684;1096;22937;-78
2021/08/11 08:37:10;;;;;;;10.93;1.90;;;;;;;20.04;67.41;100569.71;125817;1096;22844;-79
2021/08/11 08:39:41;;;;;;;5.97;1.50;;;;;;;20.12;67.23;100567.79;125742;1095;22787;-80
2021/08/11 08:42:14;;;;;;;6.57;1.20;;;;;;;20.18;65.38;100577.75;125720;1096;26971;-79
2021/08/11 08:44:45;;;;;;;9.08;1.55;;;;;;;20.22;66.13;100568.95;125759;1095;26008;-78
2021/08/11 08:47:21;;;;;;;6.83;1.58;;;;;;;20.28;65.94;100574.56;125820;1096;22792;-79
2021/08/11 08:49:52;;;;;;;10.07;1.40;;;;;;;20.33;66.10;100573.69;125763;1096;22918;-78
2021/08/11 08:52:23;;;;;;;6.73;1.55;;;;;;;20.41;64.36;100575.36;125753;1096;22835;-78
2021/08/11 08:55:01;;;;;;;4.58;1.20;;;;;;;20.49;64.11;100567.75;125789;1096;24445;-78
2021/08/11 08:57:35;;;;;;;6.33;1.43;;;;;;;20.55;64.49;100571.27;125775;1096;22773;-80
2021/08/11 09:00:10;;;;;;;6.03;1.38;;;;;;;20.68;65.01;100562.03;125745;1096;26551;-78
2021/08/11 09:02:42;;;;;;;7.55;1.45;;;;;;;20.74;65.13;100569.14;125874;1096;26003;-79
2021/08/11 09:05:15;;;;;;;5.30;1.33;;;;;;;20.81;64.23;100567.74;125878;1096;26278;-79
2021/08/11 09:07:47;;;;;;;9.10;1.95;;;;;;;20.83;63.50;100567.97;125973;1095;26986;-78
2021/08/11 09:10:21;;;;;;;5.05;1.50;;;;;;;20.80;63.17;100569.81;125889;1095;26554;-79
2021/08/11 09:12:57;;;;;;;7.15;1.43;;;;;;;20.81;63.43;100562.84;125908;1096;22860;-78
2021/08/11 09:15:32;;;;;;;6.00;1.28;;;;;;;20.92;63.76;100561.85;125855;1096;22841;-78
2021/08/11 09:18:13;;;;;;;4.68;1.20;;;;;;;21.11;63.01;100570.31;125889;1096;22786;-80
2021/08/11 09:20:46;;;;;;;5.08;1.00;;;;;;;21.23;62.57;100563.88;125721;1095;25970;-78
2021/08/11 09:23:33;;;;;;;4.78;1.30;;;;;;;21.31;61.86;100561.16;125721;1096;22816;-80
2021/08/11 09:26:08;;;;;;;5.45;1.03;;;;;;;21.30;61.59;100559.63;125627;1096;25887;-78
2021/08/11 09:28:42;;;;;;;4.85;1.10;;;;;;;21.33;61.23;100567.06;125820;1096;22793;-78
2021/08/11 09:31:30;;;;;;;4.30;1.13;;;;;;;21.32;60.43;100560.61;125706;1096;26283;-78
2021/08/11 09:34:05;;;;;;;7.25;1.05;;;;;;;21.38;60.99;100563.33;125748;1096;22861;-78
2021/08/11 09:36:49;;;;;;;4.50;0.90;;;;;;;21.48;60.72;100561.58;125707;1095;26334;-79
2021/08/11 09:39:21;;;;;;;5.58;1.20;;;;;;;21.55;60.46;100564.53;125804;1096;22822;-79
2021/08/11 09:42:04;;;;;;;5.23;1.20;;;;;;;21.60;60.17;100566.48;125772;1096;26570;-78
2021/08/11 09:44:39;;;;;;;2.83;0.80;;;;;;;21.55;57.79;100569.45;125756;1096;22786;-79
2021/08/11 09:47:17;;;;;;;4.70;1.15;;;;;;;21.52;58.39;100564.84;125786;1096;25912;-80
2021/08/11 09:50:02;;;;;;;4.48;1.10;;;;;;;21.58;58.96;100560.59;125707;1095;22863;-79
2021/08/11 09:52:48;;;;;;;3.03;0.90;;;;;;;21.63;57.33;100564.63;125832;1096;22821;-78
2021/08/11 09:55:20;;;;;;;2.68;0.95;;;;;;;21.68;57.64;100560.91;125875;1096;26321;-78
2021/08/11 09:57:51;;;;;;;4.08;1.05;;;;;;;21.74;57.58;100573.70;125713;1095;22816;-79
2021/08/11 10:00:23;;;;;;;5.98;1.13;;;;;;;21.73;57.38;100563.63;125850;1096;27240;-79
2021/08/11 10:03:06;;;;;;;3.13;0.80;;;;;;;21.79;57.25;100566.34;125809;1096;24162;-79
2021/08/11 10:05:39;;;;;;;6.55;1.10;;;;;;;21.86;57.14;100567.78;125812;1095;24888;-78
2021/08/11 10:08:10;;;;;;;3.70;0.95;;;;;;;21.93;56.25;100572.81;125877;1094;22792;-78
2021/08/11 10:10:49;;;;;;;3.65;0.88;;;;;;;21.95;56.60;100570.18;125805;1096;22831;-78
2021/08/11 10:13:24;;;;;;;3.65;1.00;;;;;;;21.89;56.30;100573.13;125874;1096;22815;-79
2021/08/11 10:15:56;;;;;;;7.25;1.10;;;;;;;21.89;56.70;100572.38;125689;1096;22776;-79
2021/08/11 10:18:29;;;;;;;3.93;0.98;;;;;;;21.90;56.48;100568.98;125817;1096;26008;-78
2021/08/11 10:21:03;;;;;;;5.60;1.23;;;;;;;21.92;56.30;100583.41;125712;1096;22788;-78
2021/08/11 10:23:34;;;;;;;10.45;1.45;;;;;;;21.91;56.25;100586.81;125731;1095;22810;-78
2021/08/11 10:26:07;;;;;;;6.08;1.00;;;;;;;21.95;55.36;100585.16;125811;1096;22757;-79
2021/08/11 10:28:45;;;;;;;4.25;1.00;;;;;;;22.00;55.62;100583.48;125825;1096;26979;-78
2021/08/11 10:31:16;;;;;;;5.77;1.20;;;;;;;22.04;55.28;100586.76;125798;1096;22990;-78
2021/08/11 10:33:48;;;;;;;6.20;1.28;;;;;;;22.11;53.97;100586.09;125698;1095;22892;-78
2021/08/11 10:36:20;;;;;;;7.43;1.35;;;;;;;22.18;54.92;100579.73;125913;1096;26437;-78
2021/08/11 10:38:52;;;;;;;5.90;1.00;;;;;;;22.22;54.44;100583.75;125760;1096;22822;-78
2021/08/11 10:41:30;;;;;;;7.88;1.00;;;;;;;22.25;54.59;100584.73;125737;1096;22906;-78
2021/08/11 10:44:03;;;;;;;4.10;0.90;;;;;;;22.33;54.57;100585.57;125838;1096;22831;-80
2021/08/11 10:46:38;;;;;;;5.08;1.00;;;;;;;22.39;54.63;100583.36;125835;1096;22813;-79
2021/08/11 10:49:16;;;;;;;7.58;1.25;;;;;;;22.41;54.52;100583.56;125841;1096;22917;-79
2021/08/11 10:51:48;;;;;;;4.83;0.88;;;;;;;22.42;54.25;100583.03;125753;1095;26334;-78
2021/08/11 10:54:20;;;;;;;6.10;1.10;;;;;;;22.35;54.83;100580.86;125744;1096;22860;-78
2021/08/11 10:56:53;;;;;;;7.38;1.30;;;;;;;22.32;54.96;100584.83;125784;1094;24277;-83
2021/08/11 10:59:46;;;;;;;4.75;1.00;;;;;;;22.34;54.58;100567.97;125753;1095;22857;-80
2021/08/11 11:02:53;;;;;;;4.15;1.10;;;;;;;22.49;54.60;100573.05;125840;1095;22858;-79
2021/08/11 11:06:06;;;;;;;4.70;1.08;;;;;;;22.55;53.91;100565.88;125718;1095;25960;-78
2021/08/11 11:08:40;;;;;;;7.98;1.35;;;;;;;22.70;54.65;100575.93;125659;1100;22791;-78
2021/08/11 11:11:40;;;;;;;7.03;1.20;;;;;;;22.86;53.76;100569.04;125718;1100;24207;-79
2021/08/11 11:14:27;;;;;;;;;;;;;;;22.84;53.40;100571.68;125835;1100;22941;-78
2021/08/11 11:17:07;;;;;;;4.00;0.95;;;;;;;22.75;52.93;100567.23;125680;1098;23108;-78
2021/08/11 11:20:30;;;;;;;10.77;1.23;;;;;;;22.66;52.83;100578.36;125732;1098;22826;-78
2021/08/11 11:23:07;;;;;;;3.78;1.00;;;;;;;22.62;52.01;100578.69;125719;1100;22873;-79
2021/08/11 11:26:05;;;;;;;4.13;1.00;;;;;;;22.59;51.38;100574.13;125753;1100;22862;-78
2021/08/11 11:29:02;;;;;;;5.78;1.30;;;;;;;22.59;52.19;100570.50;125659;1099;22805;-79
2021/08/11 11:31:44;;;;;;;7.03;1.00;;;;;;;22.59;51.26;100587.58;125808;1100;22799;-81
2021/08/11 11:34:30;;;;;;;5.38;1.00;;;;;;;22.58;51.97;100574.63;125760;1100;22793;-79
2021/08/11 11:37:24;;;;;;;3.13;0.90;;;;;;;22.67;51.70;100579.88;125815;1100;22803;-78
2021/08/11 11:40:21;;;;;;;5.28;0.90;;;;;;;22.69;48.97;100571.55;125701;1100;23634;-78
2021/08/11 11:42:52;;;;;;;5.25;0.90;;;;;;;22.63;50.14;100577.38;125724;1098;22866;-78
2021/08/11 11:45:45;;;;;;;3.05;0.90;;;;;;;22.64;49.96;100578.16;125875;1096;26018;-78
2021/08/11 11:48:16;;;;;;;4.63;1.03;;;;;;;22.58;50.86;100575.42;125794;1096;23282;-78